createdAt,value
2018-08-04T00:00:49.702Z,23.68
2018-08-04T00:01:49.739Z,23.60
2018-08-04T00:02:49.781Z,23.46
2018-08-04T00:03:49.817Z,23.38
2018-08-04T00:04:49.859Z,23.36
2018-08-04T00:05:49.894Z,23.36
2018-08-04T00:06:49.936Z,23.38
2018-08-04T00:07:49.969Z,23.39
2018-08-04T00:08:50.008Z,23.36
2018-08-04T00:09:50.048Z,23.31
2018-08-04T00:10:50.085Z,23.25
2018-08-04T00:11:50.137Z,23.28
2018-08-04T00:12:50.162Z,23.38
2018-08-04T00:13:50.200Z,23.28
2018-08-04T00:14:50.238Z,23.32
2018-08-04T00:15:50.276Z,23.32
2018-08-04T00:16:50.739Z,23.28
2018-08-04T00:17:50.353Z,23.28
2018-08-04T00:18:50.392Z,23.35
2018-08-04T00:19:50.428Z,23.40
2018-08-04T00:20:50.468Z,23.47
2018-08-04T00:21:50.506Z,23.40
2018-08-04T00:22:50.544Z,23.42
2018-08-04T00:23:50.583Z,23.38
2018-08-04T00:24:50.621Z,23.38
2018-08-04T00:25:50.659Z,23.42
2018-08-04T00:26:50.697Z,23.46
2018-08-04T00:27:50.735Z,23.54
2018-08-04T00:28:50.773Z,23.54
2018-08-04T00:29:50.812Z,23.51
2018-08-04T00:30:53.474Z,23.48
2018-08-04T00:31:50.887Z,23.54
2018-08-04T00:32:50.928Z,23.48
2018-08-04T00:33:50.965Z,23.53
2018-08-04T00:34:51.003Z,23.54
2018-08-04T00:35:51.044Z,23.53
2018-08-04T00:36:51.079Z,23.53
2018-08-04T00:37:51.121Z,23.50
2018-08-04T00:38:51.156Z,23.53
2018-08-04T00:39:51.192Z,23.50
2018-08-04T00:40:51.232Z,23.43
2018-08-04T00:41:51.271Z,23.51
2018-08-04T00:42:51.308Z,23.40
2018-08-04T00:43:51.347Z,23.50
2018-08-04T00:44:51.385Z,23.43
2018-08-04T00:45:51.423Z,23.53
2018-08-04T00:46:51.461Z,23.46
2018-08-04T00:47:51.498Z,23.48
2018-08-04T00:48:51.536Z,23.51
2018-08-04T00:49:51.576Z,23.42
2018-08-04T00:50:51.614Z,23.39
2018-08-04T00:51:51.673Z,23.42
2018-08-04T00:52:51.712Z,23.50
2018-08-04T00:53:51.750Z,23.47
2018-08-04T00:54:51.766Z,23.54
2018-08-04T00:55:51.824Z,23.48
2018-08-04T00:56:51.845Z,23.55
2018-08-04T00:57:51.882Z,23.54
2018-08-04T00:58:51.920Z,23.47
2018-08-04T00:59:51.978Z,23.40
2018-08-04T01:00:52.017Z,23.39
2018-08-04T01:02:52.071Z,23.27
2018-08-04T01:03:52.109Z,23.42
2018-08-04T01:04:52.149Z,23.28
2018-08-04T01:05:52.184Z,23.19
2018-08-04T01:06:52.223Z,23.25
2018-08-04T01:07:52.261Z,23.07
2018-08-04T01:08:52.299Z,22.95
2018-08-04T01:09:52.339Z,23.01
2018-08-04T01:10:52.376Z,23.01
2018-08-04T01:11:52.414Z,23.01
2018-08-04T01:12:52.452Z,23.15
2018-08-04T01:13:52.489Z,22.94
2018-08-04T01:14:52.528Z,22.95
2018-08-04T01:15:52.565Z,22.97
2018-08-04T01:16:52.603Z,22.92
2018-08-04T01:17:52.642Z,22.82
2018-08-04T01:18:52.681Z,22.91
2018-08-04T01:19:52.717Z,22.98
2018-08-04T01:20:52.755Z,22.86
2018-08-04T01:21:52.794Z,22.85
2018-08-04T01:22:52.831Z,22.83
2018-08-04T01:23:52.869Z,22.77
2018-08-04T01:24:52.906Z,22.73
2018-08-04T01:25:52.946Z,22.80
2018-08-04T01:26:52.984Z,22.70
2018-08-04T01:27:53.020Z,22.70
2018-08-04T01:28:53.058Z,22.77
2018-08-04T01:29:53.096Z,22.75
2018-08-04T01:30:53.133Z,22.80
2018-08-04T01:31:53.172Z,22.75
2018-08-04T01:32:53.211Z,22.77
2018-08-04T01:33:53.249Z,22.73
2018-08-04T01:34:53.286Z,22.72
2018-08-04T01:35:53.322Z,22.54
2018-08-04T01:36:53.360Z,22.60
2018-08-04T01:37:53.398Z,22.55
2018-08-04T01:38:53.436Z,22.62
2018-08-04T01:39:53.473Z,22.54
2018-08-04T01:40:53.511Z,22.54
2018-08-04T01:41:53.549Z,22.64
2018-08-04T01:42:53.588Z,22.58
2018-08-04T01:43:53.623Z,22.70
2018-08-04T01:44:53.662Z,22.70
2018-08-04T01:45:53.702Z,22.76
2018-08-04T01:46:53.738Z,22.82
2018-08-04T01:47:53.776Z,22.85
2018-08-04T01:48:53.814Z,22.88
2018-08-04T01:49:53.853Z,22.88
2018-08-04T01:50:53.890Z,22.97
2018-08-04T01:51:53.927Z,22.92
2018-08-04T01:52:53.964Z,22.88
2018-08-04T01:53:54.003Z,22.90
2018-08-04T01:54:54.040Z,22.92
2018-08-04T01:55:54.077Z,22.91
2018-08-04T01:56:54.115Z,22.88
2018-08-04T01:57:54.153Z,22.91
2018-08-04T01:58:54.191Z,22.94
2018-08-04T01:59:54.227Z,22.91
2018-08-04T02:00:54.292Z,22.86
2018-08-04T02:01:54.304Z,22.82
2018-08-04T02:02:54.342Z,22.85
2018-08-04T02:03:54.379Z,22.83
2018-08-04T02:04:54.419Z,22.82
2018-08-04T02:05:54.455Z,22.80
2018-08-04T02:06:54.493Z,22.79
2018-08-04T02:07:54.529Z,22.68
2018-08-04T02:08:54.568Z,22.68
2018-08-04T02:09:54.606Z,22.58
2018-08-04T02:10:54.644Z,22.62
2018-08-04T02:11:54.680Z,22.54
2018-08-04T02:12:54.721Z,22.47
2018-08-04T02:13:54.756Z,22.52
2018-08-04T02:14:54.795Z,22.43
2018-08-04T02:15:54.831Z,22.42
2018-08-04T02:16:54.868Z,22.42
2018-08-04T02:17:54.912Z,22.46
2018-08-04T02:18:54.951Z,22.40
2018-08-04T02:19:54.982Z,22.37
2018-08-04T02:20:55.019Z,22.36
2018-08-04T02:21:55.058Z,22.43
2018-08-04T02:22:55.095Z,22.40
2018-08-04T02:23:55.132Z,22.35
2018-08-04T02:24:55.170Z,22.20
2018-08-04T02:25:55.208Z,22.17
2018-08-04T02:26:55.247Z,22.12
2018-08-04T02:27:55.283Z,22.09
2018-08-04T02:28:55.320Z,22.09
2018-08-04T02:29:55.358Z,22.15
2018-08-04T02:30:55.399Z,22.10
2018-08-04T02:31:55.434Z,22.07
2018-08-04T02:32:55.471Z,22.02
2018-08-04T02:33:55.509Z,21.91
2018-08-04T02:34:55.545Z,21.91
2018-08-04T02:35:55.582Z,21.96
2018-08-04T02:36:55.620Z,21.96
2018-08-04T02:37:55.660Z,21.94
2018-08-04T02:38:55.696Z,21.91
2018-08-04T02:39:55.732Z,21.92
2018-08-04T02:40:55.770Z,21.94
2018-08-04T02:41:55.807Z,21.86
2018-08-04T02:42:55.846Z,21.92
2018-08-04T02:43:55.882Z,21.82
2018-08-04T02:44:55.919Z,21.79
2018-08-04T02:45:55.957Z,21.75
2018-08-04T02:46:55.995Z,21.80
2018-08-04T02:47:56.032Z,21.82
2018-08-04T02:48:56.081Z,21.83
2018-08-04T02:49:56.107Z,21.80
2018-08-04T02:50:56.144Z,21.86
2018-08-04T02:51:56.183Z,21.84
2018-08-04T02:52:56.219Z,21.84
2018-08-04T02:53:56.256Z,21.94
2018-08-04T02:54:56.306Z,21.84
2018-08-04T02:55:56.330Z,21.92
2018-08-04T02:56:56.367Z,21.88
2018-08-04T02:57:56.404Z,21.88
2018-08-04T02:58:56.443Z,21.96
2018-08-04T02:59:56.478Z,22.02
2018-08-04T03:00:56.518Z,22.02
2018-08-04T03:01:56.554Z,22.14
2018-08-04T03:02:56.592Z,22.15
2018-08-04T03:03:56.628Z,22.12
2018-08-04T03:04:56.670Z,22.10
2018-08-04T03:05:56.704Z,22.21
2018-08-04T03:06:56.741Z,22.17
2018-08-04T03:07:56.778Z,22.31
2018-08-04T03:08:56.816Z,22.24
2018-08-04T03:09:56.853Z,22.28
2018-08-04T03:10:56.890Z,22.24
2018-08-04T03:11:56.927Z,22.31
2018-08-04T03:12:56.965Z,22.40
2018-08-04T03:13:57.001Z,22.24
2018-08-04T03:14:57.040Z,22.42
2018-08-04T03:15:57.078Z,22.31
2018-08-04T03:16:57.114Z,22.42
2018-08-04T03:17:57.152Z,22.35
2018-08-04T03:18:57.189Z,22.40
2018-08-04T03:19:57.226Z,22.37
2018-08-04T03:20:57.264Z,22.42
2018-08-04T03:21:57.300Z,22.36
2018-08-04T03:22:57.337Z,22.42
2018-08-04T03:23:57.375Z,22.33
2018-08-04T03:24:57.413Z,22.31
2018-08-04T03:25:57.449Z,22.28
2018-08-04T03:26:57.487Z,22.31
2018-08-04T03:27:57.524Z,22.28
2018-08-04T03:28:57.561Z,22.35
2018-08-04T03:29:57.598Z,22.30
2018-08-04T03:30:57.637Z,22.37
2018-08-04T03:31:57.679Z,22.40
2018-08-04T03:32:57.713Z,22.40
2018-08-04T03:33:57.747Z,22.43
2018-08-04T03:34:57.785Z,22.43
2018-08-04T03:35:57.823Z,22.43
2018-08-04T03:36:57.861Z,22.42
2018-08-04T03:37:57.898Z,22.45
2018-08-04T03:38:57.934Z,22.42
2018-08-04T03:39:57.971Z,22.46
2018-08-04T03:40:58.013Z,22.35
2018-08-04T03:41:58.047Z,22.35
2018-08-04T03:42:58.085Z,22.35
2018-08-04T03:43:58.122Z,22.28
2018-08-04T03:44:58.162Z,22.24
2018-08-04T03:45:58.198Z,22.27
2018-08-04T03:46:58.234Z,22.27
2018-08-04T03:47:58.271Z,22.28
2018-08-04T03:48:58.309Z,22.30
2018-08-04T03:49:58.346Z,22.20
2018-08-04T03:50:58.384Z,22.14
2018-08-04T03:51:58.420Z,22.09
2018-08-04T03:52:58.457Z,22.05
2018-08-04T03:53:58.495Z,22.07
2018-08-04T03:54:58.533Z,21.94
2018-08-04T03:55:58.570Z,21.94
2018-08-04T03:56:58.609Z,21.96
2018-08-04T03:57:58.643Z,21.94
2018-08-04T03:58:58.683Z,21.86
2018-08-04T03:59:58.722Z,21.91
2018-08-04T04:00:58.756Z,21.84
2018-08-04T04:01:58.794Z,21.92
2018-08-04T04:02:58.832Z,21.92
2018-08-04T04:03:58.868Z,21.99
2018-08-04T04:04:58.905Z,21.90
2018-08-04T04:05:58.943Z,21.91
2018-08-04T04:06:58.980Z,21.92
2018-08-04T04:07:59.017Z,21.80
2018-08-04T04:08:59.055Z,21.64
2018-08-04T04:09:59.091Z,21.68
2018-08-04T04:10:59.129Z,21.56
2018-08-04T04:11:59.164Z,21.54
2018-08-04T04:12:59.203Z,21.58
2018-08-04T04:13:59.239Z,21.54
2018-08-04T04:14:59.281Z,21.53
2018-08-04T04:15:59.314Z,21.58
2018-08-04T04:16:59.350Z,21.58
2018-08-04T04:17:59.390Z,21.56
2018-08-04T04:18:59.426Z,21.61
2018-08-04T04:19:59.462Z,21.64
2018-08-04T04:20:59.500Z,21.58
2018-08-04T04:21:59.536Z,21.71
2018-08-04T04:22:59.574Z,21.64
2018-08-04T04:23:59.610Z,21.59
2018-08-04T04:24:59.648Z,21.56
2018-08-04T04:25:59.685Z,21.50
2018-08-04T04:26:59.722Z,21.40
2018-08-04T04:27:59.759Z,21.38
2018-08-04T04:28:59.796Z,21.38
2018-08-04T04:29:59.833Z,21.42
2018-08-04T04:30:59.871Z,21.44
2018-08-04T04:31:59.907Z,21.42
2018-08-04T04:32:59.945Z,21.46
2018-08-04T04:33:59.988Z,21.59
2018-08-04T04:35:00.020Z,21.54
2018-08-04T04:36:00.056Z,21.56
2018-08-04T04:37:00.113Z,21.68
2018-08-04T04:38:00.130Z,21.74
2018-08-04T04:39:00.165Z,21.77
2018-08-04T04:40:00.203Z,21.90
2018-08-04T04:41:00.240Z,21.99
2018-08-04T04:42:00.278Z,22.02
2018-08-04T04:43:00.314Z,21.98
2018-08-04T04:44:00.350Z,22.00
2018-08-04T04:45:00.389Z,22.00
2018-08-04T04:46:00.427Z,21.96
2018-08-04T04:47:00.464Z,21.92
2018-08-04T04:48:00.503Z,22.02
2018-08-04T04:49:00.537Z,22.02
2018-08-04T04:50:00.577Z,22.05
2018-08-04T04:51:00.613Z,22.10
2018-08-04T04:52:00.649Z,22.17
2018-08-04T04:53:00.685Z,22.14
2018-08-04T04:54:00.724Z,22.15
2018-08-04T04:55:00.762Z,22.14
2018-08-04T04:56:00.801Z,22.12
2018-08-04T04:57:00.835Z,22.03
2018-08-04T04:58:00.874Z,22.12
2018-08-04T04:59:00.910Z,22.06
2018-08-04T05:00:00.947Z,21.99
2018-08-04T05:01:00.984Z,21.96
2018-08-04T05:02:01.031Z,21.91
2018-08-04T05:03:01.061Z,21.92
2018-08-04T05:04:01.097Z,21.90
2018-08-04T05:05:01.135Z,21.91
2018-08-04T05:06:01.172Z,21.94
2018-08-04T05:07:01.210Z,21.88
2018-08-04T05:08:01.248Z,21.83
2018-08-04T05:09:01.284Z,21.92
2018-08-04T05:10:01.323Z,22.09
2018-08-04T05:11:01.363Z,22.15
2018-08-04T05:12:01.396Z,22.24
2018-08-04T05:13:01.434Z,22.28
2018-08-04T05:14:01.471Z,22.33
2018-08-04T05:15:01.509Z,22.46
2018-08-04T05:16:01.543Z,22.46
2018-08-04T05:17:01.582Z,22.64
2018-08-04T05:18:01.619Z,22.62
2018-08-04T05:19:01.658Z,22.75
2018-08-04T05:20:01.696Z,22.85
2018-08-04T05:21:01.735Z,23.00
2018-08-04T05:22:01.771Z,23.04
2018-08-04T05:23:01.811Z,23.16
2018-08-04T05:24:01.844Z,23.16
2018-08-04T05:25:01.883Z,23.31
2018-08-04T05:26:01.928Z,23.40
2018-08-04T05:27:01.959Z,23.42
2018-08-04T05:28:02.000Z,23.51
2018-08-04T05:29:02.035Z,23.57
2018-08-04T05:30:02.071Z,23.63
2018-08-04T05:31:02.112Z,23.68
2018-08-04T05:32:02.251Z,23.88
2018-08-04T05:33:02.185Z,24.03
2018-08-04T05:34:02.224Z,24.02
2018-08-04T05:35:02.268Z,24.15
2018-08-04T05:36:02.299Z,24.24
2018-08-04T05:37:02.338Z,24.21
2018-08-04T05:38:02.376Z,24.30
2018-08-04T05:39:02.415Z,24.34
2018-08-04T05:40:02.453Z,24.37
2018-08-04T05:41:02.491Z,24.40
2018-08-04T05:42:02.539Z,24.35
2018-08-04T05:43:02.567Z,24.53
2018-08-04T05:44:02.610Z,24.50
2018-08-04T05:45:02.644Z,24.53
2018-08-04T05:46:02.684Z,24.50
2018-08-04T05:47:02.722Z,24.58
2018-08-04T05:48:02.760Z,24.65
2018-08-04T05:49:02.797Z,24.61
2018-08-04T05:50:02.899Z,24.64
2018-08-04T05:51:02.878Z,24.73
2018-08-04T05:52:02.914Z,24.64
2018-08-04T05:53:02.975Z,24.64
2018-08-04T05:54:02.992Z,24.76
2018-08-04T05:55:03.051Z,24.83
2018-08-04T05:56:03.067Z,24.93
2018-08-04T05:57:03.129Z,24.85
2018-08-04T05:58:03.215Z,24.90
2018-08-04T05:59:03.185Z,24.95
2018-08-04T06:00:03.224Z,24.98
2018-08-04T06:01:03.264Z,24.84
2018-08-04T06:02:03.301Z,24.83
2018-08-04T06:03:03.341Z,24.71
2018-08-04T06:04:03.379Z,24.73
2018-08-04T06:05:03.417Z,24.83
2018-08-04T06:07:03.521Z,25.14
2018-08-04T06:08:03.535Z,25.25
2018-08-04T06:09:03.573Z,25.43
2018-08-04T06:10:03.614Z,25.47
2018-08-04T06:11:03.675Z,25.62
2018-08-04T06:12:04.320Z,25.64
2018-08-04T06:13:03.731Z,25.73
2018-08-04T06:14:03.770Z,25.69
2018-08-04T06:15:03.834Z,25.90
2018-08-04T06:16:04.050Z,25.92
2018-08-04T06:17:03.888Z,25.88
2018-08-04T06:18:03.928Z,26.01
2018-08-04T06:19:03.973Z,26.02
2018-08-04T06:20:04.006Z,26.15
2018-08-04T06:21:04.047Z,26.06
2018-08-04T06:22:04.140Z,26.17
2018-08-04T06:23:04.124Z,25.99
2018-08-04T06:24:04.163Z,25.83
2018-08-04T06:25:04.204Z,25.98
2018-08-04T06:26:04.244Z,26.06
2018-08-04T06:27:04.283Z,26.10
2018-08-04T06:28:04.324Z,26.02
2018-08-04T06:29:04.361Z,26.17
2018-08-04T06:30:04.404Z,26.29
2018-08-04T06:31:04.444Z,26.36
2018-08-04T06:32:04.480Z,26.50
2018-08-04T06:33:04.520Z,26.67
2018-08-04T06:34:04.560Z,26.77
2018-08-04T06:35:04.599Z,26.89
2018-08-04T06:36:04.638Z,26.89
2018-08-04T06:37:04.679Z,26.95
2018-08-04T06:38:04.717Z,27.06
2018-08-04T06:39:04.768Z,27.10
2018-08-04T06:40:04.798Z,27.24
2018-08-04T06:41:04.838Z,27.31
2018-08-04T06:42:04.880Z,27.44
2018-08-04T06:43:04.919Z,27.43
2018-08-04T06:44:04.958Z,27.47
2018-08-04T06:45:04.998Z,27.57
2018-08-04T06:46:05.038Z,27.62
2018-08-04T06:47:05.079Z,27.75
2018-08-04T06:48:05.142Z,27.82
2018-08-04T06:49:05.159Z,27.77
2018-08-04T06:50:05.200Z,27.75
2018-08-04T06:51:05.570Z,27.79
2018-08-04T06:52:05.504Z,27.88
2018-08-04T06:53:05.320Z,27.79
2018-08-04T06:54:05.362Z,27.92
2018-08-04T06:55:05.402Z,27.94
2018-08-04T06:56:05.445Z,27.96
2018-08-04T06:57:05.482Z,28.00
2018-08-04T06:58:05.524Z,27.99
2018-08-04T06:59:05.566Z,27.94
2018-08-04T07:00:05.604Z,28.12
2018-08-04T07:01:05.652Z,28.17
2018-08-04T07:02:05.692Z,28.15
2018-08-04T07:03:05.727Z,28.15
2018-08-04T07:04:05.768Z,28.29
2018-08-04T07:05:05.811Z,28.34
2018-08-04T07:06:05.848Z,28.41
2018-08-04T07:07:05.890Z,28.59
2018-08-04T07:08:05.932Z,28.62
2018-08-04T07:09:05.971Z,28.74
2018-08-04T07:10:06.011Z,28.86
2018-08-04T07:11:06.057Z,28.93
2018-08-04T07:12:06.094Z,28.81
2018-08-04T07:13:06.134Z,28.96
2018-08-04T07:14:06.176Z,29.02
2018-08-04T07:15:06.220Z,29.08
2018-08-04T07:16:06.269Z,29.24
2018-08-04T07:17:06.299Z,29.19
2018-08-04T07:18:06.341Z,29.33
2018-08-04T07:19:06.382Z,29.37
2018-08-04T07:20:06.423Z,29.41
2018-08-04T07:21:06.464Z,29.41
2018-08-04T07:22:06.510Z,29.55
2018-08-04T07:23:06.548Z,29.58
2018-08-04T07:24:06.588Z,29.57
2018-08-04T07:25:06.629Z,29.36
2018-08-04T07:26:06.671Z,29.60
2018-08-04T07:27:06.715Z,29.36
2018-08-04T07:28:06.753Z,29.43
2018-08-04T07:29:06.907Z,29.43
2018-08-04T07:30:06.835Z,29.68
2018-08-04T07:31:06.879Z,29.65
2018-08-04T07:32:06.919Z,29.73
2018-08-04T07:33:06.960Z,29.61
2018-08-04T07:34:07.002Z,29.74
2018-08-04T07:35:07.045Z,29.87
2018-08-04T07:36:07.084Z,30.01
2018-08-04T07:37:07.127Z,30.20
2018-08-04T07:38:07.169Z,30.15
2018-08-04T07:39:07.237Z,30.46
2018-08-04T07:40:07.680Z,30.61
2018-08-04T07:42:07.336Z,30.88
2018-08-04T07:43:07.400Z,30.97
2018-08-04T07:44:07.418Z,30.95
2018-08-04T07:45:07.462Z,30.91
2018-08-04T07:46:07.504Z,30.80
2018-08-04T07:47:07.551Z,30.86
2018-08-04T07:48:07.589Z,30.97
2018-08-04T07:49:07.676Z,31.10
2018-08-04T07:50:07.724Z,30.91
2018-08-04T07:51:07.716Z,31.02
2018-08-04T07:52:07.758Z,31.14
2018-08-04T07:53:07.800Z,31.36
2018-08-04T07:54:07.842Z,31.21
2018-08-04T07:55:07.885Z,31.29
2018-08-04T07:56:07.928Z,31.47
2018-08-04T07:57:07.970Z,31.46
2018-08-04T07:58:08.014Z,31.57
2018-08-04T07:59:08.056Z,31.75
2018-08-04T08:00:08.097Z,31.68
2018-08-04T08:01:08.140Z,31.61
2018-08-04T08:02:08.184Z,31.75
2018-08-04T08:03:08.227Z,31.93
2018-08-04T08:04:08.269Z,31.96
2018-08-04T08:05:08.385Z,31.95
2018-08-04T08:06:08.355Z,31.86
2018-08-04T08:07:08.398Z,31.81
2018-08-04T08:08:08.443Z,31.68
2018-08-04T08:09:08.485Z,31.46
2018-08-04T08:10:08.528Z,31.56
2018-08-04T08:11:08.650Z,31.48
2018-08-04T08:12:08.614Z,31.58
2018-08-04T08:13:08.656Z,31.51
2018-08-04T08:14:09.509Z,31.54
2018-08-04T08:15:09.070Z,31.48
2018-08-04T08:16:08.787Z,31.65
2018-08-04T08:17:08.829Z,31.69
2018-08-04T08:18:08.872Z,31.86
2018-08-04T08:19:08.917Z,32.00
2018-08-04T08:20:08.960Z,32.22
2018-08-04T08:21:09.004Z,32.41
2018-08-04T08:22:09.046Z,32.57
2018-08-04T08:23:09.118Z,32.44
2018-08-04T08:24:09.133Z,32.62
2018-08-04T08:25:09.176Z,32.67
2018-08-04T08:26:09.225Z,32.77
2018-08-04T08:27:09.467Z,32.67
2018-08-04T08:28:09.307Z,32.74
2018-08-04T08:29:09.352Z,32.92
2018-08-04T08:30:09.399Z,32.81
2018-08-04T08:31:09.498Z,32.97
2018-08-04T08:32:09.483Z,32.93
2018-08-04T08:33:09.529Z,33.04
2018-08-04T08:34:09.574Z,33.11
2018-08-04T08:35:09.616Z,33.44
2018-08-04T08:36:09.661Z,33.15
2018-08-04T08:37:09.706Z,33.35
2018-08-04T08:38:09.748Z,33.56
2018-08-04T08:39:09.792Z,33.69
2018-08-04T08:40:09.838Z,33.94
2018-08-04T08:41:09.913Z,33.69
2018-08-04T08:42:09.930Z,33.66
2018-08-04T08:43:09.974Z,33.90
2018-08-04T08:44:10.015Z,33.69
2018-08-04T08:45:10.060Z,34.24
2018-08-04T08:46:10.106Z,34.39
2018-08-04T08:47:10.182Z,34.50
2018-08-04T08:48:10.193Z,34.59
2018-08-04T08:49:10.240Z,34.62
2018-08-04T08:50:10.286Z,34.66
2018-08-04T08:51:10.331Z,34.46
2018-08-04T08:52:10.376Z,34.64
2018-08-04T08:53:10.479Z,34.42
2018-08-04T08:54:10.669Z,34.39
2018-08-04T08:55:10.515Z,34.17
2018-08-04T08:56:10.579Z,34.10
2018-08-04T08:57:10.602Z,34.24
2018-08-04T08:58:10.647Z,34.40
2018-08-04T08:59:10.694Z,34.27
2018-08-04T09:00:10.740Z,34.37
2018-08-04T09:01:10.783Z,34.35
2018-08-04T09:02:10.829Z,34.24
2018-08-04T09:03:10.880Z,34.08
2018-08-04T09:04:10.920Z,34.16
2018-08-04T09:05:10.963Z,33.94
2018-08-04T09:06:11.010Z,33.76
2018-08-04T09:07:11.056Z,33.61
2018-08-04T09:08:11.101Z,33.59
2018-08-04T09:09:11.146Z,33.54
2018-08-04T09:10:11.194Z,33.53
2018-08-04T09:11:11.237Z,33.41
2018-08-04T09:12:11.281Z,33.57
2018-08-04T09:13:11.326Z,33.78
2018-08-04T09:14:11.371Z,33.94
2018-08-04T09:15:11.419Z,33.97
2018-08-04T09:16:11.461Z,34.34
2018-08-04T09:17:11.508Z,34.44
2018-08-04T09:18:11.570Z,34.49
2018-08-04T09:19:11.596Z,34.52
2018-08-04T09:20:11.642Z,34.53
2018-08-04T09:21:11.686Z,34.62
2018-08-04T09:22:11.732Z,34.73
2018-08-04T09:23:12.105Z,34.89
2018-08-04T09:24:11.821Z,34.64
2018-08-04T09:25:11.890Z,34.43
2018-08-04T09:26:11.915Z,34.72
2018-08-04T09:27:11.958Z,34.66
2018-08-04T09:28:12.004Z,34.66
2018-08-04T09:29:12.047Z,34.81
2018-08-04T09:30:12.095Z,34.21
2018-08-04T09:31:12.139Z,33.87
2018-08-04T09:32:12.187Z,33.35
2018-08-04T09:33:12.230Z,33.03
2018-08-04T09:34:12.274Z,33.07
2018-08-04T09:35:12.346Z,33.23
2018-08-04T09:36:12.386Z,33.34
2018-08-04T09:37:12.410Z,33.38
2018-08-04T09:38:12.477Z,33.50
2018-08-04T09:40:12.874Z,33.66
2018-08-04T09:41:12.592Z,33.75
2018-08-04T09:42:12.639Z,34.05
2018-08-04T09:43:12.682Z,33.66
2018-08-04T09:44:12.727Z,34.00
2018-08-04T09:45:12.773Z,34.05
2018-08-04T09:46:12.818Z,34.00
2018-08-04T09:47:12.867Z,33.82
2018-08-04T09:48:12.910Z,33.47
2018-08-04T09:49:12.976Z,33.81
2018-08-04T09:50:13.026Z,33.95
2018-08-04T09:54:13.409Z,34.43
2018-08-04T09:55:13.964Z,34.34
2018-08-04T09:56:13.706Z,34.16
2018-08-04T09:57:13.544Z,34.28
2018-08-04T09:59:13.412Z,34.96
2018-08-04T10:00:13.478Z,35.14
2018-08-04T10:01:14.238Z,35.21
2018-08-04T10:03:13.620Z,35.26
2018-08-04T10:04:13.868Z,35.41
2018-08-04T10:06:14.042Z,35.31
2018-08-04T10:12:14.010Z,36.37
2018-08-04T10:13:14.059Z,36.71
2018-08-04T10:15:14.151Z,37.43
2018-08-04T10:16:14.199Z,38.07
2018-08-04T10:17:14.249Z,38.22
2018-08-04T10:18:14.293Z,38.47
2018-08-04T10:19:14.340Z,38.91
2018-08-04T10:20:14.512Z,38.59
2018-08-04T10:21:14.437Z,39.28
2018-08-04T10:22:14.485Z,39.62
2018-08-04T10:23:14.535Z,40.08
2018-08-04T10:24:14.596Z,40.27
2018-08-04T10:25:14.866Z,40.42
2018-08-04T10:26:14.685Z,40.41
2018-08-04T10:27:14.736Z,41.10
2018-08-04T10:28:14.786Z,40.91
2018-08-04T10:29:14.838Z,40.79
2018-08-04T10:30:14.889Z,41.20
2018-08-04T10:31:14.940Z,42.21
2018-08-04T10:32:15.144Z,42.17
2018-08-04T10:33:15.045Z,41.35
2018-08-04T10:34:15.097Z,41.45
2018-08-04T10:35:15.150Z,41.52
2018-08-04T10:36:15.205Z,41.63
2018-08-04T10:37:15.255Z,40.95
2018-08-04T10:38:15.310Z,41.69
2018-08-04T10:39:15.362Z,41.66
2018-08-04T10:40:15.415Z,41.60
2018-08-04T10:41:15.469Z,40.39
2018-08-04T10:42:15.523Z,41.20
2018-08-04T10:43:15.577Z,40.87
2018-08-04T10:44:15.632Z,41.52
2018-08-04T10:45:15.687Z,42.08
2018-08-04T10:46:15.741Z,42.28
2018-08-04T10:47:15.808Z,40.95
2018-08-04T10:48:15.849Z,41.42
2018-08-04T10:49:15.904Z,41.44
2018-08-04T10:50:16.163Z,41.01
2018-08-04T10:51:16.016Z,41.82
2018-08-04T10:52:16.070Z,42.28
2018-08-04T10:53:16.124Z,42.20
2018-08-04T10:54:16.181Z,42.83
2018-08-04T10:55:16.236Z,42.57
2018-08-04T10:56:16.293Z,43.05
2018-08-04T10:57:16.349Z,42.33
2018-08-04T10:58:16.403Z,42.46
2018-08-04T10:59:16.458Z,42.52
2018-08-04T11:00:16.513Z,42.42
2018-08-04T11:01:16.567Z,42.62
2018-08-04T11:02:16.625Z,42.57
2018-08-04T11:03:16.680Z,42.80
2018-08-04T11:04:16.736Z,42.74
2018-08-04T11:05:16.791Z,42.93
2018-08-04T11:06:16.847Z,43.47
2018-08-04T11:07:16.927Z,42.84
2018-08-04T11:08:16.959Z,42.66
2018-08-04T11:09:17.017Z,43.37
2018-08-04T11:10:17.070Z,43.08
2018-08-04T11:11:17.128Z,43.98
2018-08-04T11:12:17.184Z,44.25
2018-08-04T11:13:17.241Z,43.31
2018-08-04T11:14:17.296Z,43.90
2018-08-04T11:15:17.353Z,43.47
2018-08-04T11:16:17.409Z,43.76
2018-08-04T11:17:17.466Z,43.52
2018-08-04T11:18:17.548Z,43.05
2018-08-04T11:21:17.716Z,42.28
2018-08-04T11:22:17.771Z,42.61
2018-08-04T11:23:18.233Z,43.34
2018-08-04T11:24:18.093Z,43.76
2018-08-04T11:25:17.921Z,44.34
2018-08-04T11:26:17.976Z,45.02
2018-08-04T11:27:18.035Z,45.33
2018-08-04T11:28:18.101Z,44.88
2018-08-04T11:29:18.149Z,45.13
2018-08-04T11:30:18.206Z,44.13
2018-08-04T11:31:18.264Z,43.27
2018-08-04T11:32:18.321Z,44.10
2018-08-04T11:33:18.379Z,43.17
2018-08-04T11:34:18.437Z,43.37
2018-08-04T11:35:18.494Z,42.83
2018-08-04T11:36:18.551Z,43.23
2018-08-04T11:37:18.608Z,43.86
2018-08-04T11:38:18.667Z,43.52
2018-08-04T11:39:18.725Z,43.91
2018-08-04T11:40:18.781Z,44.56
2018-08-04T11:41:18.839Z,44.70
2018-08-04T11:42:18.897Z,43.79
2018-08-04T11:43:18.956Z,44.18
2018-08-04T11:44:19.013Z,44.64
2018-08-04T11:45:19.070Z,44.62
2018-08-04T11:46:19.129Z,44.68
2018-08-04T11:47:19.188Z,45.61
2018-08-04T11:48:19.246Z,44.76
2018-08-04T11:49:19.302Z,44.46
2018-08-04T11:50:19.361Z,43.42
2018-08-04T11:51:19.419Z,44.05
2018-08-04T11:52:19.477Z,44.75
2018-08-04T11:53:19.535Z,45.29
2018-08-04T11:54:19.593Z,45.62
2018-08-04T11:55:19.651Z,45.81
2018-08-04T11:56:19.708Z,46.43
2018-08-04T11:57:19.769Z,46.34
2018-08-04T11:58:19.875Z,46.54
2018-08-04T11:59:19.882Z,46.99
2018-08-04T12:00:19.939Z,46.99
2018-08-04T12:01:19.998Z,46.30
2018-08-04T12:02:20.055Z,46.34
2018-08-04T12:03:20.113Z,46.76
2018-08-04T12:04:20.170Z,44.73
2018-08-04T12:05:20.243Z,46.35
2018-08-04T12:06:20.286Z,46.65
2018-08-04T12:07:20.344Z,45.72
2018-08-04T12:08:20.402Z,46.04
2018-08-04T12:09:20.460Z,46.08
2018-08-04T12:10:20.519Z,46.28
2018-08-04T12:11:20.579Z,46.30
2018-08-04T12:12:20.635Z,46.18
2018-08-04T12:13:20.693Z,46.99
2018-08-04T12:14:20.752Z,47.37
2018-08-04T12:15:20.815Z,47.83
2018-08-04T12:16:20.869Z,46.78
2018-08-04T12:17:20.930Z,47.18
2018-08-04T12:18:20.987Z,48.13
2018-08-04T12:19:21.047Z,48.41
2018-08-04T12:20:21.104Z,47.73
2018-08-04T12:21:21.161Z,47.47
2018-08-04T12:22:21.221Z,48.04
2018-08-04T12:23:21.289Z,47.54
2018-08-04T12:24:21.337Z,47.60
2018-08-04T12:25:21.396Z,48.25
2018-08-04T12:27:21.513Z,48.42
2018-08-04T12:28:21.572Z,47.90
2018-08-04T12:29:21.630Z,47.45
2018-08-04T12:30:21.689Z,47.79
2018-08-04T12:31:21.780Z,47.99
2018-08-04T12:32:21.804Z,47.97
2018-08-04T12:33:21.863Z,48.23
2018-08-04T12:34:21.925Z,48.67
2018-08-04T12:35:21.982Z,49.01
2018-08-04T12:36:22.046Z,50.00
2018-08-04T12:37:22.105Z,49.06
2018-08-04T12:38:22.160Z,49.46
2018-08-04T12:39:22.220Z,50.08
2018-08-04T12:40:22.278Z,50.09
2018-08-04T12:41:22.338Z,49.13
2018-08-04T12:42:22.416Z,49.34
2018-08-04T12:43:22.457Z,49.05
2018-08-04T12:44:22.519Z,48.78
2018-08-04T12:45:22.578Z,48.21
2018-08-04T12:46:22.637Z,48.18
2018-08-04T12:47:22.701Z,48.17
2018-08-04T12:48:22.754Z,47.64
2018-08-04T12:49:22.814Z,47.54
2018-08-04T12:50:22.875Z,48.01
2018-08-04T12:51:22.932Z,48.13
2018-08-04T12:52:22.990Z,48.61
2018-08-04T12:53:23.051Z,49.12
2018-08-04T12:54:23.112Z,49.28
2018-08-04T12:55:23.169Z,48.33
2018-08-04T12:56:23.227Z,48.45
2018-08-04T12:57:23.288Z,48.23
2018-08-04T12:58:23.346Z,48.37
2018-08-04T12:59:23.405Z,48.49
2018-08-04T13:00:23.485Z,49.37
2018-08-04T13:01:23.521Z,49.41
2018-08-04T13:02:23.581Z,49.63
2018-08-04T13:03:23.639Z,49.99
2018-08-04T13:04:23.700Z,49.71
2018-08-04T13:05:23.758Z,49.94
2018-08-04T13:06:23.816Z,49.97
2018-08-04T13:07:23.879Z,49.97
2018-08-04T13:08:23.936Z,49.97
2018-08-04T13:09:23.993Z,49.96
2018-08-04T13:10:24.053Z,49.17
2018-08-04T13:11:24.111Z,48.67
2018-08-04T13:12:24.171Z,48.55